Time;durP1;ratioP1;P1;durP2;ratioP2;P2;SDS_P1;SDS_P2;PMS_P1;PMS_P2;Temp;Humidity;BMP_temperature;BMP_pressure;BME280_temperature;BME280_humidity;BME280_pressure;Samples;Min_cycle;Max_cycle;Signal;HPM_P1;HPM_P2
2023/08/25 00:00:22;;;;;;;5.57;3.30;;;;;;;;;;5007549;28;20033;-67
2023/08/25 00:02:47;;;;;;;6.53;3.20;;;;;;;;;;5008102;28;20117;-68
2023/08/25 00:05:13;;;;;;;5.18;2.67;;;;;;;;;;5007635;28;20030;-68
2023/08/25 00:07:38;;;;;;;5.80;2.75;;;;;;;;;;5016564;28;20133;-68
2023/08/25 00:10:05;;;;;;;5.40;2.70;;;;;;;;;;5027544;28;20462;-68
2023/08/25 00:12:31;;;;;;;5.47;3.33;;;;;;;;;;5025951;28;20033;-68
2023/08/25 00:14:56;;;;;;;3.75;2.72;;;;;;;;;;5027336;28;20068;-68
2023/08/25 00:17:21;;;;;;;5.10;3.00;;;;;;;;;;5027298;28;20046;-68
2023/08/25 00:19:47;;;;;;;3.80;2.72;;;;;;;;;;5027512;28;20045;-68
2023/08/25 00:22:12;;;;;;;6.80;2.72;;;;;;;;;;5027114;28;20043;-68
2023/08/25 00:24:38;;;;;;;6.35;3.05;;;;;;;;;;5027636;28;20069;-68
2023/08/25 00:27:04;;;;;;;7.93;2.90;;;;;;;;;;5027553;28;20092;-68
2023/08/25 00:29:29;;;;;;;4.68;2.63;;;;;;;;;;5033922;28;20301;-68
2023/08/25 00:31:55;;;;;;;6.25;3.00;;;;;;;;;;5022401;28;20507;-68
2023/08/25 00:34:20;;;;;;;5.95;3.05;;;;;;;;;;5008070;28;20042;-68
2023/08/25 00:36:45;;;;;;;7.75;2.83;;;;;;;;;;5005030;28;20028;-68
2023/08/25 00:39:11;;;;;;;7.53;3.08;;;;;;;;;;4989573;28;20031;-68
2023/08/25 00:41:36;;;;;;;5.68;2.75;;;;;;;;;;5001716;28;20119;-68
2023/08/25 00:44:02;;;;;;;7.90;3.13;;;;;;;;;;5017586;28;20049;-68
2023/08/25 00:46:28;;;;;;;6.35;3.20;;;;;;;;;;5019890;28;20056;-68
2023/08/25 00:48:55;;;;;;;7.68;3.10;;;;;;;;;;5016394;28;20025;-68
2023/08/25 00:51:21;;;;;;;7.25;2.65;;;;;;;;;;5013544;28;20032;-68
2023/08/25 00:53:47;;;;;;;7.90;2.95;;;;;;;;;;5025442;28;20052;-68
2023/08/25 00:56:15;;;;;;;4.43;3.08;;;;;;;;;;5013313;28;20029;-68
2023/08/25 00:58:40;;;;;;;5.75;3.10;;;;;;;;;;5016086;28;20749;-68
2023/08/25 01:01:06;;;;;;;8.95;3.17;;;;;;;;;;5019104;28;20036;-68
2023/08/25 01:03:32;;;;;;;7.00;2.67;;;;;;;;;;5000276;28;20094;-68
2023/08/25 01:05:57;;;;;;;6.57;2.85;;;;;;;;;;5012422;28;20147;-68
2023/08/25 01:08:24;;;;;;;7.88;3.10;;;;;;;;;;5004608;28;20044;-68
2023/08/25 01:11:02;;;;;;;6.55;3.15;;;;;;;;;;5003994;28;20041;-68
2023/08/25 01:13:53;;;;;;;6.82;3.45;;;;;;;;;;5012804;28;20038;-68
2023/08/25 01:16:25;;;;;;;4.55;3.08;;;;;;;;;;5015346;28;20038;-68
2023/08/25 01:18:51;;;;;;;5.97;3.00;;;;;;;;;;5019572;28;20034;-68
2023/08/25 01:21:17;;;;;;;5.57;2.80;;;;;;;;;;4992896;28;20026;-68
2023/08/25 01:24:12;;;;;;;6.82;3.25;;;;;;;;;;5012931;28;20526;-68
2023/08/25 01:26:38;;;;;;;8.25;3.30;;;;;;;;;;5012527;28;20037;-68
2023/08/25 01:29:03;;;;;;;6.45;3.58;;;;;;;;;;5014772;28;20048;-68
2023/08/25 01:31:29;;;;;;;4.47;3.25;;;;;;;;;;5018106;28;20049;-68
2023/08/25 01:33:55;;;;;;;7.03;3.33;;;;;;;;;;5011574;28;20084;-68
2023/08/25 01:36:33;;;;;;;5.47;3.13;;;;;;;;;;5005561;28;20021;-68
2023/08/25 01:39:15;;;;;;;6.70;3.72;;;;;;;;;;5008136;28;20124;-68
2023/08/25 01:41:47;;;;;;;8.18;3.17;;;;;;;;;;5018950;28;20041;-68
2023/08/25 01:44:19;;;;;;;7.00;3.58;;;;;;;;;;4992951;28;20054;-68
2023/08/25 01:46:50;;;;;;;7.00;3.33;;;;;;;;;;5001185;28;20392;-68
2023/08/25 01:49:17;;;;;;;4.82;3.33;;;;;;;;;;5012218;28;20025;-68
2023/08/25 01:51:44;;;;;;;9.18;3.85;;;;;;;;;;5012948;28;20089;-68
2023/08/25 01:54:10;;;;;;;5.85;3.10;;;;;;;;;;5013490;28;20022;-68
2023/08/25 01:56:35;;;;;;;6.72;3.40;;;;;;;;;;5020463;28;20052;-68
2023/08/25 01:59:01;;;;;;;6.10;3.33;;;;;;;;;;5008848;28;20050;-68
2023/08/25 02:01:27;;;;;;;7.63;3.53;;;;;;;;;;5005832;28;20029;-68
2023/08/25 02:03:52;;;;;;;6.38;3.53;;;;;;;;;;5017736;28;20108;-68
2023/08/25 02:06:18;;;;;;;6.15;3.50;;;;;;;;;;5011976;28;20021;-68
2023/08/25 02:08:44;;;;;;;7.03;3.67;;;;;;;;;;4995681;28;20125;-68
2023/08/25 02:11:09;;;;;;;6.40;3.88;;;;;;;;;;5009409;28;20033;-68
2023/08/25 02:13:35;;;;;;;6.95;3.63;;;;;;;;;;5011660;28;20041;-68
2023/08/25 02:16:00;;;;;;;5.90;3.55;;;;;;;;;;5014114;28;20030;-68
2023/08/25 02:18:25;;;;;;;5.07;3.63;;;;;;;;;;5019061;28;20411;-68
2023/08/25 02:20:51;;;;;;;5.90;3.30;;;;;;;;;;5016352;28;20079;-68
2023/08/25 02:23:16;;;;;;;6.70;3.75;;;;;;;;;;4972260;28;20425;-68
2023/08/25 02:25:41;;;;;;;6.68;4.00;;;;;;;;;;4977590;28;20175;-68
2023/08/25 02:28:07;;;;;;;7.70;3.92;;;;;;;;;;4980938;28;20046;-68
2023/08/25 02:30:32;;;;;;;5.28;3.50;;;;;;;;;;4968707;28;20058;-68
2023/08/25 02:32:58;;;;;;;7.28;3.72;;;;;;;;;;5024765;28;20098;-68
2023/08/25 02:35:24;;;;;;;7.88;4.68;;;;;;;;;;5025344;28;20093;-68
2023/08/25 02:38:05;;;;;;;5.72;4.05;;;;;;;;;;5024862;28;20103;-68
2023/08/25 02:40:31;;;;;;;9.55;3.70;;;;;;;;;;5025044;28;20034;-68
2023/08/25 02:42:59;;;;;;;6.72;3.80;;;;;;;;;;5020382;28;20092;-68
2023/08/25 02:45:25;;;;;;;7.18;4.10;;;;;;;;;;5016201;28;20123;-68
2023/08/25 02:47:51;;;;;;;8.38;4.22;;;;;;;;;;5024531;28;20045;-68
2023/08/25 02:50:17;;;;;;;8.35;4.65;;;;;;;;;;5021927;28;20037;-68
2023/08/25 02:52:42;;;;;;;7.75;4.28;;;;;;;;;;5024475;28;20030;-68
2023/08/25 02:55:08;;;;;;;6.75;4.05;;;;;;;;;;5024961;28;20040;-68
2023/08/25 02:57:33;;;;;;;5.25;3.63;;;;;;;;;;5025019;28;20037;-67
2023/08/25 02:59:59;;;;;;;6.70;3.95;;;;;;;;;;5012437;28;20065;-68
2023/08/25 03:02:24;;;;;;;6.10;3.83;;;;;;;;;;5024144;28;20038;-68
2023/08/25 03:04:49;;;;;;;8.02;4.32;;;;;;;;;;5024070;28;20033;-68
2023/08/25 03:07:15;;;;;;;6.85;4.30;;;;;;;;;;5025040;28;20041;-68
2023/08/25 03:09:40;;;;;;;6.55;3.90;;;;;;;;;;5024836;28;20727;-68
2023/08/25 03:12:06;;;;;;;5.45;4.10;;;;;;;;;;5025166;28;20055;-68
2023/08/25 03:14:31;;;;;;;8.95;4.70;;;;;;;;;;5024784;28;20037;-68
2023/08/25 03:16:57;;;;;;;7.40;4.30;;;;;;;;;;5025103;28;20040;-68
2023/08/25 03:19:22;;;;;;;10.23;4.30;;;;;;;;;;5025872;28;20087;-68
2023/08/25 03:21:47;;;;;;;9.75;4.40;;;;;;;;;;5028363;28;20026;-67
2023/08/25 03:24:13;;;;;;;8.57;4.95;;;;;;;;;;5032602;28;20102;-68
2023/08/25 03:26:38;;;;;;;9.77;4.43;;;;;;;;;;5000503;28;20088;-68
2023/08/25 03:29:03;;;;;;;8.05;4.55;;;;;;;;;;4998518;28;20074;-67
2023/08/25 03:31:29;;;;;;;8.15;4.53;;;;;;;;;;4996898;28;20053;-68
2023/08/25 03:33:54;;;;;;;14.07;5.05;;;;;;;;;;4989489;28;20457;-68
2023/08/25 03:36:19;;;;;;;13.07;4.05;;;;;;;;;;5000000;28;20072;-68
2023/08/25 03:38:45;;;;;;;9.77;4.18;;;;;;;;;;5019411;28;20056;-68
2023/08/25 03:41:10;;;;;;;8.48;4.40;;;;;;;;;;5017541;28;20037;-68
2023/08/25 03:43:36;;;;;;;8.85;4.72;;;;;;;;;;5001821;28;20552;-68
2023/08/25 03:46:03;;;;;;;9.07;4.93;;;;;;;;;;5017937;28;20463;-68
2023/08/25 03:48:28;;;;;;;11.65;4.75;;;;;;;;;;5019140;28;20052;-68
2023/08/25 03:50:53;;;;;;;7.95;4.68;;;;;;;;;;4996852;28;20037;-68
2023/08/25 03:53:19;;;;;;;8.95;5.00;;;;;;;;;;5016706;28;20062;-68
2023/08/25 03:55:44;;;;;;;10.23;4.80;;;;;;;;;;5020802;28;20499;-68
2023/08/25 03:58:10;;;;;;;9.02;4.60;;;;;;;;;;5018711;28;20083;-68
2023/08/25 04:00:36;;;;;;;7.40;4.13;;;;;;;;;;5014500;28;20095;-67
2023/08/25 04:03:03;;;;;;;8.32;5.00;;;;;;;;;;5014534;28;20755;-68
2023/08/25 04:05:29;;;;;;;10.40;4.60;;;;;;;;;;5019732;28;20057;-68
2023/08/25 04:07:55;;;;;;;10.20;4.50;;;;;;;;;;4998073;28;20038;-68
2023/08/25 04:10:21;;;;;;;9.07;4.97;;;;;;;;;;5006172;28;20042;-68
2023/08/25 04:12:46;;;;;;;8.13;4.32;;;;;;;;;;5019843;28;20028;-68
2023/08/25 04:15:11;;;;;;;10.05;5.00;;;;;;;;;;5016033;28;20021;-68
2023/08/25 04:17:37;;;;;;;10.93;4.75;;;;;;;;;;5014370;28;20125;-68
2023/08/25 04:20:03;;;;;;;9.13;4.90;;;;;;;;;;5018797;28;20037;-68
2023/08/25 04:22:28;;;;;;;8.13;4.70;;;;;;;;;;5020169;28;20107;-69
2023/08/25 04:24:53;;;;;;;10.07;5.18;;;;;;;;;;5015863;28;20033;-68
2023/08/25 04:27:19;;;;;;;9.77;4.85;;;;;;;;;;5014362;28;20030;-68
2023/08/25 04:29:44;;;;;;;11.05;5.20;;;;;;;;;;5018278;28;20088;-68
2023/08/25 04:32:09;;;;;;;13.15;4.78;;;;;;;;;;5026784;28;20136;-68
2023/08/25 04:34:35;;;;;;;11.93;4.95;;;;;;;;;;5026945;28;20558;-68
2023/08/25 04:37:00;;;;;;;13.95;5.35;;;;;;;;;;5027396;28;20068;-68
2023/08/25 04:39:26;;;;;;;8.75;5.00;;;;;;;;;;5026329;28;20718;-68
2023/08/25 04:41:51;;;;;;;9.93;5.15;;;;;;;;;;5026857;28;20104;-69
2023/08/25 04:44:16;;;;;;;10.88;5.20;;;;;;;;;;5014281;28;20144;-68
2023/08/25 04:46:42;;;;;;;14.18;5.25;;;;;;;;;;5027117;28;20176;-68
2023/08/25 04:49:09;;;;;;;7.72;5.28;;;;;;;;;;5031306;28;20037;-68
2023/08/25 04:51:35;;;;;;;15.48;5.03;;;;;;;;;;5037231;28;20095;-68
2023/08/25 04:54:00;;;;;;;11.77;5.82;;;;;;;;;;5027014;28;20029;-69
2023/08/25 04:56:25;;;;;;;9.80;5.75;;;;;;;;;;5026523;28;20040;-68
2023/08/25 04:58:51;;;;;;;12.02;5.88;;;;;;;;;;5025533;28;20051;-68
2023/08/25 05:01:16;;;;;;;19.58;6.63;;;;;;;;;;5014923;28;20427;-71
2023/08/25 05:03:44;;;;;;;13.70;7.00;;;;;;;;;;5026402;28;20026;-69
2023/08/25 05:06:10;;;;;;;14.93;7.03;;;;;;;;;;5018154;28;20029;-69
2023/08/25 05:08:35;;;;;;;11.25;7.07;;;;;;;;;;5011501;28;20648;-69
2023/08/25 05:11:01;;;;;;;13.52;6.95;;;;;;;;;;4988642;28;20124;-69
2023/08/25 05:13:27;;;;;;;15.48;6.72;;;;;;;;;;5003705;28;20033;-68
2023/08/25 05:15:53;;;;;;;27.52;6.93;;;;;;;;;;5017075;28;20030;-68
2023/08/25 05:18:19;;;;;;;18.13;7.00;;;;;;;;;;5004780;28;20044;-69
2023/08/25 05:20:44;;;;;;;10.90;6.47;;;;;;;;;;5007672;28;20041;-69
2023/08/25 05:23:10;;;;;;;17.27;7.82;;;;;;;;;;5011297;28;20038;-69
2023/08/25 05:25:35;;;;;;;18.58;8.10;;;;;;;;;;5004074;28;20063;-69
2023/08/25 05:28:00;;;;;;;20.55;9.32;;;;;;;;;;5009440;28;20469;-69
2023/08/25 05:30:26;;;;;;;18.45;8.60;;;;;;;;;;5010231;28;20049;-69
2023/08/25 05:32:51;;;;;;;18.60;8.77;;;;;;;;;;5005132;28;20761;-69
2023/08/25 05:35:17;;;;;;;19.15;9.30;;;;;;;;;;5003782;28;20042;-68
2023/08/25 05:37:42;;;;;;;23.90;9.95;;;;;;;;;;4992712;28;20042;-69
2023/08/25 05:40:08;;;;;;;26.65;9.98;;;;;;;;;;5011721;28;20414;-68
2023/08/25 05:42:35;;;;;;;26.10;10.35;;;;;;;;;;5021425;28;20031;-68
2023/08/25 05:45:01;;;;;;;33.90;10.60;;;;;;;;;;5002604;28;20542;-68
2023/08/25 05:47:26;;;;;;;32.60;10.02;;;;;;;;;;5003815;28;20042;-68
2023/08/25 05:49:51;;;;;;;30.23;11.75;;;;;;;;;;5010635;28;20144;-68
2023/08/25 05:52:17;;;;;;;32.65;12.18;;;;;;;;;;5008385;28;20044;-68
2023/08/25 05:54:42;;;;;;;32.75;12.32;;;;;;;;;;4974313;28;20022;-68
2023/08/25 05:57:08;;;;;;;31.02;12.55;;;;;;;;;;5002534;28;20573;-68
2023/08/25 05:59:33;;;;;;;36.35;13.45;;;;;;;;;;4995043;28;20058;-68
2023/08/25 06:01:59;;;;;;;37.63;14.27;;;;;;;;;;5004944;28;20048;-68
2023/08/25 06:04:24;;;;;;;41.58;13.02;;;;;;;;;;5005689;28;20592;-68
2023/08/25 06:06:49;;;;;;;38.63;12.43;;;;;;;;;;5004875;28;20026;-68
2023/08/25 06:09:17;;;;;;;42.08;14.70;;;;;;;;;;5005407;28;20396;-68
2023/08/25 06:11:44;;;;;;;44.90;14.15;;;;;;;;;;5006966;28;20049;-68
2023/08/25 06:14:09;;;;;;;44.33;15.32;;;;;;;;;;5008434;28;20049;-68
2023/08/25 06:16:38;;;;;;;58.72;17.40;;;;;;;;;;5013909;28;20038;-68
2023/08/25 06:19:03;;;;;;;53.85;16.58;;;;;;;;;;5010452;28;20037;-68
2023/08/25 06:21:29;;;;;;;53.35;17.20;;;;;;;;;;4989692;28;20026;-68
2023/08/25 06:23:54;;;;;;;55.08;16.98;;;;;;;;;;5006778;28;20038;-68
2023/08/25 06:26:20;;;;;;;69.60;18.13;;;;;;;;;;5006533;28;20074;-68
2023/08/25 06:28:45;;;;;;;62.45;18.33;;;;;;;;;;5005871;28;20042;-68
2023/08/25 06:31:10;;;;;;;63.25;18.10;;;;;;;;;;5005787;28;20042;-68
2023/08/25 06:33:38;;;;;;;53.83;18.02;;;;;;;;;;5002755;28;20026;-68
2023/08/25 06:36:04;;;;;;;56.35;17.77;;;;;;;;;;4997463;28;20042;-68
2023/08/25 06:38:30;;;;;;;56.92;16.58;;;;;;;;;;5005963;28;20041;-68
2023/08/25 06:40:55;;;;;;;52.15;16.50;;;;;;;;;;5004584;28;20038;-68
2023/08/25 06:43:20;;;;;;;61.47;17.42;;;;;;;;;;5005690;28;20661;-69
2023/08/25 06:45:46;;;;;;;65.15;18.05;;;;;;;;;;4998023;28;20494;-69
2023/08/25 06:48:11;;;;;;;60.60;16.73;;;;;;;;;;4996678;28;20038;-69
2023/08/25 06:50:37;;;;;;;68.35;16.70;;;;;;;;;;4989058;28;20470;-69
2023/08/25 06:53:04;;;;;;;67.90;17.08;;;;;;;;;;4999372;28;20033;-69
2023/08/25 06:55:33;;;;;;;55.08;15.98;;;;;;;;;;5001122;28;20092;-69
2023/08/25 06:57:59;;;;;;;49.95;13.98;;;;;;;;;;5003628;28;20588;-69
2023/08/25 07:00:25;;;;;;;47.38;14.43;;;;;;;;;;4994612;28;20108;-69
2023/08/25 07:02:51;;;;;;;50.92;14.27;;;;;;;;;;5004117;28;20095;-69
2023/08/25 07:05:16;;;;;;;47.22;13.80;;;;;;;;;;5006412;28;20050;-69
2023/08/25 07:07:42;;;;;;;55.50;14.18;;;;;;;;;;4998982;28;20052;-70
2023/08/25 07:10:08;;;;;;;60.58;15.25;;;;;;;;;;5007019;28;20522;-70
2023/08/25 07:12:34;;;;;;;56.65;14.30;;;;;;;;;;4999957;28;20022;-68
2023/08/25 07:15:00;;;;;;;70.35;15.15;;;;;;;;;;4998376;28;20042;-69
2023/08/25 07:17:25;;;;;;;65.95;15.88;;;;;;;;;;4993860;28;20049;-67
2023/08/25 07:19:51;;;;;;;81.40;16.90;;;;;;;;;;4999863;28;20052;-69
2023/08/25 07:22:16;;;;;;;64.22;14.68;;;;;;;;;;4999554;28;20046;-68
2023/08/25 07:24:42;;;;;;;57.70;16.25;;;;;;;;;;5001248;28;20759;-69
2023/08/25 07:27:07;;;;;;;69.93;15.90;;;;;;;;;;5005025;28;20057;-69
2023/08/25 07:29:36;;;;;;;73.25;17.02;;;;;;;;;;5009355;28;20038;-69
2023/08/25 07:32:02;;;;;;;89.63;15.73;;;;;;;;;;5012674;28;20083;-69
2023/08/25 07:34:28;;;;;;;88.25;15.43;;;;;;;;;;5026353;28;20049;-69
2023/08/25 07:36:53;;;;;;;80.13;15.40;;;;;;;;;;5027209;28;20033;-69
2023/08/25 07:39:19;;;;;;;65.35;15.07;;;;;;;;;;5027130;28;20582;-69
2023/08/25 07:41:44;;;;;;;66.93;15.38;;;;;;;;;;5033742;28;20056;-70
2023/08/25 07:44:10;;;;;;;57.35;14.95;;;;;;;;;;5035147;28;20542;-69
2023/08/25 07:46:39;;;;;;;80.65;16.45;;;;;;;;;;5025484;28;20041;-69
2023/08/25 07:49:06;;;;;;;80.18;16.33;;;;;;;;;;5021106;28;20025;-69
2023/08/25 07:51:32;;;;;;;76.70;15.27;;;;;;;;;;5023388;28;20671;-69
2023/08/25 07:53:57;;;;;;;72.80;15.70;;;;;;;;;;5025013;28;20042;-69
2023/08/25 07:56:22;;;;;;;64.28;15.73;;;;;;;;;;5026058;28;20465;-69
2023/08/25 07:58:48;;;;;;;65.22;16.23;;;;;;;;;;5025632;28;20532;-69
2023/08/25 08:01:13;;;;;;;88.57;16.95;;;;;;;;;;5025639;28;25506;-69
2023/08/25 08:03:38;;;;;;;81.18;15.02;;;;;;;;;;5026779;28;20477;-69
2023/08/25 08:06:04;;;;;;;63.20;16.20;;;;;;;;;;5023816;28;20042;-69
2023/08/25 08:08:29;;;;;;;60.20;15.13;;;;;;;;;;5024205;28;20880;-69
2023/08/25 08:10:55;;;;;;;75.80;16.15;;;;;;;;;;5014511;28;20747;-72
2023/08/25 08:13:20;;;;;;;68.65;16.90;;;;;;;;;;5004743;28;20053;-69
2023/08/25 08:15:46;;;;;;;65.05;16.27;;;;;;;;;;5017300;28;20033;-69
2023/08/25 08:18:11;;;;;;;66.80;15.50;;;;;;;;;;5022932;28;20045;-69
2023/08/25 08:20:37;;;;;;;77.85;17.20;;;;;;;;;;5024129;28;20680;-69
2023/08/25 08:23:03;;;;;;;68.65;17.40;;;;;;;;;;5025217;28;20122;-68
2023/08/25 08:25:30;;;;;;;63.20;15.93;;;;;;;;;;5022907;28;20128;-69
2023/08/25 08:27:56;;;;;;;65.03;17.13;;;;;;;;;;5025653;28;20131;-67
2023/08/25 08:30:21;;;;;;;76.40;17.25;;;;;;;;;;5024941;28;20057;-69
2023/08/25 08:32:47;;;;;;;74.20;16.08;;;;;;;;;;5012056;28;20064;-69
2023/08/25 08:35:12;;;;;;;62.22;16.38;;;;;;;;;;4993353;28;20038;-69
2023/08/25 08:37:39;;;;;;;69.40;16.90;;;;;;;;;;4967047;28;20045;-68
2023/08/25 08:40:06;;;;;;;65.57;16.42;;;;;;;;;;5000009;28;20036;-68
2023/08/25 08:42:36;;;;;;;72.70;16.42;;;;;;;;;;4980143;28;20768;-69
2023/08/25 08:45:05;;;;;;;68.43;16.95;;;;;;;;;;4978804;28;20896;-69
2023/08/25 08:47:32;;;;;;;80.18;18.67;;;;;;;;;;4987549;28;20119;-68
2023/08/25 08:49:58;;;;;;;74.22;17.42;;;;;;;;;;4995511;28;20514;-69
2023/08/25 08:52:24;;;;;;;66.97;17.10;;;;;;;;;;5003535;28;20037;-69
2023/08/25 08:54:49;;;;;;;64.97;16.85;;;;;;;;;;4987156;28;20132;-68
2023/08/25 08:57:15;;;;;;;62.85;16.60;;;;;;;;;;4983177;28;20073;-69
2023/08/25 08:59:41;;;;;;;59.13;15.32;;;;;;;;;;4983825;28;20487;-69
2023/08/25 09:02:08;;;;;;;68.05;16.67;;;;;;;;;;4972743;28;20034;-69
2023/08/25 09:04:37;;;;;;;63.13;15.75;;;;;;;;;;4974295;28;20039;-69
2023/08/25 09:07:03;;;;;;;71.25;16.38;;;;;;;;;;4981983;28;20118;-68
2023/08/25 09:09:30;;;;;;;82.95;17.33;;;;;;;;;;4990252;28;20022;-69
2023/08/25 09:11:55;;;;;;;73.93;18.50;;;;;;;;;;4978400;28;20093;-69
2023/08/25 09:14:25;;;;;;;98.32;20.33;;;;;;;;;;4974111;28;20031;-69
2023/08/25 09:16:55;;;;;;;88.13;20.08;;;;;;;;;;4991512;28;20253;-69
2023/08/25 09:19:22;;;;;;;99.80;20.10;;;;;;;;;;5013210;28;20064;-69
2023/08/25 09:21:48;;;;;;;98.03;22.35;;;;;;;;;;4993838;28;20021;-69
2023/08/25 09:24:21;;;;;;;114.75;22.48;;;;;;;;;;5009669;28;20125;-69
2023/08/25 09:26:47;;;;;;;107.45;21.20;;;;;;;;;;5020383;28;20467;-69
2023/08/25 09:29:12;;;;;;;119.13;23.58;;;;;;;;;;5010512;28;20519;-69
2023/08/25 09:31:38;;;;;;;118.97;22.58;;;;;;;;;;5012406;28;20119;-69
2023/08/25 09:34:05;;;;;;;111.60;23.95;;;;;;;;;;5015613;28;20026;-69
2023/08/25 09:36:31;;;;;;;139.80;23.73;;;;;;;;;;5015462;28;20036;-69
2023/08/25 09:38:57;;;;;;;120.22;21.75;;;;;;;;;;5009783;28;20034;-69
2023/08/25 09:41:24;;;;;;;117.05;23.13;;;;;;;;;;4981850;28;20069;-69
2023/08/25 09:43:51;;;;;;;117.47;21.55;;;;;;;;;;4995834;28;20046;-69
2023/08/25 09:46:16;;;;;;;115.40;22.48;;;;;;;;;;4999016;28;20037;-69
2023/08/25 09:48:45;;;;;;;95.97;19.88;;;;;;;;;;4998782;28;20044;-69
2023/08/25 09:51:10;;;;;;;90.45;19.20;;;;;;;;;;5004465;28;20026;-69
2023/08/25 09:53:38;;;;;;;87.72;19.52;;;;;;;;;;4994056;28;20026;-69
2023/08/25 09:56:07;;;;;;;89.15;19.70;;;;;;;;;;4997128;28;20038;-69
2023/08/25 09:58:34;;;;;;;87.30;18.95;;;;;;;;;;4991708;28;20044;-70
2023/08/25 10:00:59;;;;;;;82.18;18.48;;;;;;;;;;5013570;28;20040;-68
2023/08/25 10:03:26;;;;;;;73.30;18.50;;;;;;;;;;5011348;28;20576;-69
2023/08/25 10:05:52;;;;;;;76.38;17.95;;;;;;;;;;4994922;28;20037;-68
2023/08/25 10:08:18;;;;;;;78.43;17.42;;;;;;;;;;5017071;28;20042;-69
2023/08/25 10:10:44;;;;;;;67.88;18.10;;;;;;;;;;4991897;28;20040;-69
2023/08/25 10:13:14;;;;;;;78.18;18.20;;;;;;;;;;5015883;28;20553;-68
2023/08/25 10:15:42;;;;;;;80.50;16.83;;;;;;;;;;5016251;28;20478;-70
2023/08/25 10:18:09;;;;;;;77.35;17.58;;;;;;;;;;5008782;28;20079;-70
2023/08/25 10:20:38;;;;;;;88.70;16.88;;;;;;;;;;5010440;28;20140;-70
2023/08/25 10:23:04;;;;;;;104.10;18.15;;;;;;;;;;4996724;28;20037;-71
2023/08/25 10:25:31;;;;;;;104.75;19.17;;;;;;;;;;5009525;28;20075;-71
2023/08/25 10:28:01;;;;;;;99.60;18.58;;;;;;;;;;5016107;28;20038;-70
2023/08/25 10:30:27;;;;;;;100.50;19.77;;;;;;;;;;5017438;28;20082;-71
2023/08/25 10:33:00;;;;;;;96.63;20.45;;;;;;;;;;5014923;28;20080;-70
2023/08/25 10:35:43;;;;;;;102.57;19.80;;;;;;;;;;5001804;28;20096;-71
2023/08/25 10:38:18;;;;;;;98.30;20.15;;;;;;;;;;4996691;28;20041;-72
2023/08/25 10:40:48;;;;;;;93.80;21.58;;;;;;;;;;5006592;28;20054;-70
2023/08/25 10:43:14;;;;;;;107.85;20.95;;;;;;;;;;4987710;28;20058;-70
2023/08/25 10:45:39;;;;;;;92.30;20.25;;;;;;;;;;5000321;28;20455;-70
2023/08/25 10:48:06;;;;;;;96.57;20.95;;;;;;;;;;5017445;28;20542;-70
2023/08/25 10:50:32;;;;;;;89.07;19.30;;;;;;;;;;5019610;28;20041;-70
2023/08/25 10:52:58;;;;;;;67.25;15.55;;;;;;;;;;4992608;28;20030;-70
2023/08/25 10:55:25;;;;;;;66.95;15.93;;;;;;;;;;5019217;28;20040;-70
2023/08/25 10:57:52;;;;;;;86.45;17.85;;;;;;;;;;5011161;28;20025;-70
2023/08/25 11:00:27;;;;;;;113.28;21.55;;;;;;;;;;5011038;28;20048;-70
2023/08/25 11:02:52;;;;;;;123.72;23.50;;;;;;;;;;5012951;28;20259;-71
2023/08/25 11:05:33;;;;;;;110.88;22.30;;;;;;;;;;5001758;28;20065;-71
2023/08/25 11:08:03;;;;;;;111.57;23.95;;;;;;;;;;5019908;28;20056;-72
2023/08/25 11:10:33;;;;;;;87.22;21.10;;;;;;;;;;5015012;28;20507;-70
2023/08/25 11:12:59;;;;;;;86.45;21.27;;;;;;;;;;5013025;28;20040;-70
2023/08/25 11:15:25;;;;;;;91.47;21.70;;;;;;;;;;5017003;28;20092;-70
2023/08/25 11:17:51;;;;;;;103.78;23.50;;;;;;;;;;5019138;28;20057;-69
2023/08/25 11:20:17;;;;;;;91.65;22.38;;;;;;;;;;5016407;28;20537;-70
2023/08/25 11:22:52;;;;;;;92.88;22.40;;;;;;;;;;5013231;28;20041;-70
2023/08/25 11:25:17;;;;;;;96.90;21.60;;;;;;;;;;5013868;28;20063;-70
2023/08/25 11:27:43;;;;;;;106.00;23.98;;;;;;;;;;5018235;28;20034;-70
2023/08/25 11:30:09;;;;;;;90.80;22.83;;;;;;;;;;5018455;28;20766;-70
2023/08/25 11:32:36;;;;;;;100.88;23.08;;;;;;;;;;5011943;28;20052;-70
2023/08/25 11:35:04;;;;;;;97.60;23.33;;;;;;;;;;5012828;28;20030;-70
2023/08/25 11:37:29;;;;;;;93.03;23.77;;;;;;;;;;5001083;28;20343;-70
2023/08/25 11:39:55;;;;;;;105.30;24.77;;;;;;;;;;5012322;28;20603;-69
2023/08/25 11:42:21;;;;;;;90.25;24.60;;;;;;;;;;5018876;28;20017;-70
2023/08/25 11:44:46;;;;;;;94.75;24.55;;;;;;;;;;5012903;28;20080;-70
2023/08/25 11:47:12;;;;;;;71.97;22.42;;;;;;;;;;5012342;28;20116;-70
2023/08/25 11:49:39;;;;;;;83.68;22.55;;;;;;;;;;4999747;28;20050;-70
2023/08/25 11:52:06;;;;;;;80.78;22.88;;;;;;;;;;5012660;28;20026;-70
2023/08/25 11:54:31;;;;;;;61.28;21.25;;;;;;;;;;5017008;28;20025;-70
2023/08/25 11:56:57;;;;;;;70.32;24.38;;;;;;;;;;5013594;28;20038;-70
2023/08/25 11:59:25;;;;;;;63.75;22.02;;;;;;;;;;5012496;28;20041;-70
2023/08/25 12:01:50;;;;;;;54.05;20.00;;;;;;;;;;5028238;28;20037;-70
2023/08/25 12:04:23;;;;;;;53.25;21.08;;;;;;;;;;5028468;28;20041;-70
2023/08/25 12:06:53;;;;;;;49.28;19.25;;;;;;;;;;5015564;28;20029;-70
2023/08/25 12:09:23;;;;;;;55.38;20.77;;;;;;;;;;4995772;28;20838;-70
2023/08/25 12:11:49;;;;;;;45.47;18.95;;;;;;;;;;4977651;28;20034;-70
2023/08/25 12:14:24;;;;;;;44.25;18.02;;;;;;;;;;4985841;28;20072;-70
2023/08/25 12:16:50;;;;;;;42.00;17.98;;;;;;;;;;4973054;28;20042;-70
2023/08/25 12:19:15;;;;;;;39.25;17.17;;;;;;;;;;4983934;28;20088;-70
2023/08/25 12:21:41;;;;;;;42.38;17.40;;;;;;;;;;4975650;28;20057;-70
2023/08/25 12:24:06;;;;;;;37.47;16.38;;;;;;;;;;5016422;28;20342;-69
2023/08/25 12:26:31;;;;;;;34.95;17.83;;;;;;;;;;5007266;28;20047;-69
2023/08/25 12:28:57;;;;;;;38.88;17.23;;;;;;;;;;5009741;28;20037;-70
2023/08/25 12:31:22;;;;;;;30.70;17.30;;;;;;;;;;4992644;28;20049;-69
2023/08/25 12:33:48;;;;;;;35.60;16.85;;;;;;;;;;5024466;28;20495;-69
2023/08/25 12:36:13;;;;;;;38.25;18.13;;;;;;;;;;5021204;28;20137;-71
2023/08/25 12:38:39;;;;;;;38.30;16.92;;;;;;;;;;5021163;28;20064;-70
2023/08/25 12:41:04;;;;;;;31.20;16.35;;;;;;;;;;5012422;28;20561;-70
2023/08/25 12:43:29;;;;;;;35.17;16.08;;;;;;;;;;5024563;28;20558;-71
2023/08/25 12:45:55;;;;;;;33.33;16.33;;;;;;;;;;5022682;28;20024;-69
2023/08/25 12:48:20;;;;;;;31.80;17.05;;;;;;;;;;5025205;28;20579;-70
2023/08/25 12:50:46;;;;;;;36.65;16.73;;;;;;;;;;5020530;28;20099;-70
2023/08/25 12:53:11;;;;;;;36.22;17.98;;;;;;;;;;5024189;28;20029;-70
2023/08/25 12:55:36;;;;;;;39.05;18.38;;;;;;;;;;5023866;28;20030;-70
2023/08/25 12:58:02;;;;;;;38.67;18.23;;;;;;;;;;5023334;28;20136;-70
2023/08/25 13:00:28;;;;;;;35.35;17.77;;;;;;;;;;4997728;28;20018;-70
2023/08/25 13:02:53;;;;;;;40.05;18.55;;;;;;;;;;5011600;28;20522;-70
2023/08/25 13:05:19;;;;;;;35.38;15.85;;;;;;;;;;5023479;28;20056;-70
2023/08/25 13:07:44;;;;;;;30.70;16.58;;;;;;;;;;5023812;28;20646;-71
2023/08/25 13:10:09;;;;;;;29.02;15.95;;;;;;;;;;5023916;28;20029;-70
2023/08/25 13:12:36;;;;;;;33.78;17.17;;;;;;;;;;5024183;28;20495;-71
2023/08/25 13:15:02;;;;;;;28.60;15.85;;;;;;;;;;5024249;28;20033;-70
2023/08/25 13:17:28;;;;;;;36.47;17.40;;;;;;;;;;5022754;28;20052;-70
2023/08/25 13:19:54;;;;;;;31.85;17.33;;;;;;;;;;5024988;28;20422;-70
2023/08/25 13:22:20;;;;;;;33.17;17.92;;;;;;;;;;5022506;28;20068;-70
2023/08/25 13:24:46;;;;;;;35.65;18.75;;;;;;;;;;5010574;28;20024;-72
2023/08/25 13:27:11;;;;;;;32.40;18.67;;;;;;;;;;5023344;28;20076;-70
2023/08/25 13:29:37;;;;;;;29.80;17.67;;;;;;;;;;5026158;28;20097;-69
2023/08/25 13:32:02;;;;;;;31.88;16.88;;;;;;;;;;5013337;28;20255;-69
2023/08/25 13:34:28;;;;;;;30.27;17.13;;;;;;;;;;5006602;28;20037;-69
2023/08/25 13:36:53;;;;;;;31.77;16.38;;;;;;;;;;5024640;28;20474;-70
2023/08/25 13:39:19;;;;;;;24.92;16.20;;;;;;;;;;5023042;28;20033;-70
2023/08/25 13:41:44;;;;;;;29.35;16.23;;;;;;;;;;5024153;28;20084;-70
2023/08/25 13:44:09;;;;;;;28.65;15.18;;;;;;;;;;5010558;28;20042;-70
2023/08/25 13:46:35;;;;;;;28.55;15.90;;;;;;;;;;5024477;28;20041;-70
2023/08/25 13:49:01;;;;;;;27.50;15.93;;;;;;;;;;5022403;28;20021;-70
2023/08/25 13:51:27;;;;;;;26.90;15.32;;;;;;;;;;5024364;28;20025;-70
2023/08/25 13:53:53;;;;;;;26.48;15.25;;;;;;;;;;5023232;28;20030;-70
2023/08/25 13:56:18;;;;;;;25.60;14.95;;;;;;;;;;5023596;28;20037;-70
2023/08/25 13:58:43;;;;;;;27.08;15.45;;;;;;;;;;5015925;28;20046;-70
2023/08/25 14:01:09;;;;;;;33.35;15.05;;;;;;;;;;4995002;28;20496;-71
2023/08/25 14:03:34;;;;;;;25.85;14.32;;;;;;;;;;5021936;28;20450;-70
2023/08/25 14:06:00;;;;;;;29.60;15.75;;;;;;;;;;5022370;28;20033;-70
2023/08/25 14:08:25;;;;;;;24.83;14.35;;;;;;;;;;5023642;28;20045;-70
2023/08/25 14:10:52;;;;;;;28.05;14.48;;;;;;;;;;5022498;28;20677;-70
2023/08/25 14:13:17;;;;;;;24.75;14.50;;;;;;;;;;5023155;28;20095;-70
2023/08/25 14:15:43;;;;;;;23.33;13.85;;;;;;;;;;5024287;28;20033;-70
2023/08/25 14:18:08;;;;;;;20.80;13.70;;;;;;;;;;5023327;28;20041;-70
2023/08/25 14:20:34;;;;;;;21.63;12.90;;;;;;;;;;5021827;28;20092;-70